sensor_id;sensor_type;location;lat;lon;timestamp;P1;durP1;ratioP1;P2;durP2;ratioP2
45490;SDS011;31237;45.586;13.782;2023-05-07T00:01:42;6.15;;;4.10;;
45490;SDS011;31237;45.586;13.782;2023-05-07T00:04:08;5.80;;;4.00;;
45490;SDS011;31237;45.586;13.782;2023-05-07T00:06:34;5.30;;;4.05;;
45490;SDS011;31237;45.586;13.782;2023-05-07T00:09:00;5.68;;;3.80;;
45490;SDS011;31237;45.586;13.782;2023-05-07T00:11:27;5.75;;;4.05;;
45490;SDS011;31237;45.586;13.782;2023-05-07T00:13:53;7.10;;;4.07;;
45490;SDS011;31237;45.586;13.782;2023-05-07T00:16:19;5.95;;;4.50;;
45490;SDS011;31237;45.586;13.782;2023-05-07T00:18:44;6.00;;;4.38;;
45490;SDS011;31237;45.586;13.782;2023-05-07T00:21:11;5.80;;;4.30;;
45490;SDS011;31237;45.586;13.782;2023-05-07T00:23:36;6.43;;;4.57;;
45490;SDS011;31237;45.586;13.782;2023-05-07T00:26:02;6.05;;;4.43;;
45490;SDS011;31237;45.586;13.782;2023-05-07T00:28:28;6.00;;;4.07;;
45490;SDS011;31237;45.586;13.782;2023-05-07T00:30:54;6.25;;;4.65;;
45490;SDS011;31237;45.586;13.782;2023-05-07T00:33:20;6.38;;;4.35;;
45490;SDS011;31237;45.586;13.782;2023-05-07T00:35:47;4.93;;;4.10;;
45490;SDS011;31237;45.586;13.782;2023-05-07T00:38:13;7.43;;;4.93;;
45490;SDS011;31237;45.586;13.782;2023-05-07T00:40:39;7.45;;;4.78;;
45490;SDS011;31237;45.586;13.782;2023-05-07T00:43:05;5.95;;;4.30;;
45490;SDS011;31237;45.586;13.782;2023-05-07T00:45:33;6.35;;;4.90;;
45490;SDS011;31237;45.586;13.782;2023-05-07T00:47:59;6.65;;;5.10;;
45490;SDS011;31237;45.586;13.782;2023-05-07T00:50:26;8.10;;;4.72;;
45490;SDS011;31237;45.586;13.782;2023-05-07T00:52:53;7.03;;;5.00;;
45490;SDS011;31237;45.586;13.782;2023-05-07T00:55:20;7.35;;;4.95;;
45490;SDS011;31237;45.586;13.782;2023-05-07T00:57:46;7.60;;;4.63;;
45490;SDS011;31237;45.586;13.782;2023-05-07T01:00:12;8.63;;;5.28;;
45490;SDS011;31237;45.586;13.782;2023-05-07T01:02:39;7.38;;;4.88;;
45490;SDS011;31237;45.586;13.782;2023-05-07T01:05:05;6.65;;;4.47;;
45490;SDS011;31237;45.586;13.782;2023-05-07T01:10:05;7.32;;;5.05;;
45490;SDS011;31237;45.586;13.782;2023-05-07T01:12:33;8.15;;;4.43;;
45490;SDS011;31237;45.586;13.782;2023-05-07T01:15:00;6.85;;;4.72;;
45490;SDS011;31237;45.586;13.782;2023-05-07T01:17:26;6.35;;;4.50;;
45490;SDS011;31237;45.586;13.782;2023-05-07T01:19:55;6.15;;;4.20;;
45490;SDS011;31237;45.586;13.782;2023-05-07T01:22:31;5.47;;;4.07;;
45490;SDS011;31237;45.586;13.782;2023-05-07T01:24:58;6.97;;;4.50;;
45490;SDS011;31237;45.586;13.782;2023-05-07T01:27:26;6.22;;;4.15;;
45490;SDS011;31237;45.586;13.782;2023-05-07T01:29:52;6.28;;;4.40;;
45490;SDS011;31237;45.586;13.782;2023-05-07T01:32:18;7.85;;;4.38;;
45490;SDS011;31237;45.586;13.782;2023-05-07T01:34:51;6.57;;;4.10;;
45490;SDS011;31237;45.586;13.782;2023-05-07T01:37:17;6.25;;;4.40;;
45490;SDS011;31237;45.586;13.782;2023-05-07T01:39:43;6.80;;;4.00;;
45490;SDS011;31237;45.586;13.782;2023-05-07T01:42:10;6.95;;;4.57;;
45490;SDS011;31237;45.586;13.782;2023-05-07T01:44:35;6.38;;;4.13;;
45490;SDS011;31237;45.586;13.782;2023-05-07T01:47:01;8.23;;;4.53;;
45490;SDS011;31237;45.586;13.782;2023-05-07T01:49:27;6.35;;;4.18;;
45490;SDS011;31237;45.586;13.782;2023-05-07T01:51:53;5.63;;;4.53;;
45490;SDS011;31237;45.586;13.782;2023-05-07T01:54:21;6.10;;;3.88;;
45490;SDS011;31237;45.586;13.782;2023-05-07T01:56:52;8.57;;;4.32;;
45490;SDS011;31237;45.586;13.782;2023-05-07T01:59:18;6.40;;;3.63;;
45490;SDS011;31237;45.586;13.782;2023-05-07T02:01:44;9.38;;;4.35;;
45490;SDS011;31237;45.586;13.782;2023-05-07T02:04:10;6.07;;;4.28;;
45490;SDS011;31237;45.586;13.782;2023-05-07T02:06:35;6.45;;;3.67;;
45490;SDS011;31237;45.586;13.782;2023-05-07T02:09:01;5.65;;;3.70;;
45490;SDS011;31237;45.586;13.782;2023-05-07T02:11:27;5.50;;;3.75;;
45490;SDS011;31237;45.586;13.782;2023-05-07T02:13:52;6.43;;;4.18;;
45490;SDS011;31237;45.586;13.782;2023-05-07T02:16:18;6.88;;;4.78;;
45490;SDS011;31237;45.586;13.782;2023-05-07T02:18:44;5.47;;;4.35;;
45490;SDS011;31237;45.586;13.782;2023-05-07T02:21:10;6.38;;;4.20;;
45490;SDS011;31237;45.586;13.782;2023-05-07T02:23:36;5.07;;;3.83;;
45490;SDS011;31237;45.586;13.782;2023-05-07T02:26:01;5.05;;;3.90;;
45490;SDS011;31237;45.586;13.782;2023-05-07T02:28:28;6.03;;;4.13;;
45490;SDS011;31237;45.586;13.782;2023-05-07T02:30:54;4.78;;;3.75;;
45490;SDS011;31237;45.586;13.782;2023-05-07T02:33:20;5.07;;;4.00;;
45490;SDS011;31237;45.586;13.782;2023-05-07T02:35:45;5.22;;;4.10;;
45490;SDS011;31237;45.586;13.782;2023-05-07T02:38:11;6.18;;;4.40;;
45490;SDS011;31237;45.586;13.782;2023-05-07T02:40:37;5.72;;;4.00;;
45490;SDS011;31237;45.586;13.782;2023-05-07T02:43:05;6.03;;;3.92;;
45490;SDS011;31237;45.586;13.782;2023-05-07T02:45:31;5.43;;;4.05;;
45490;SDS011;31237;45.586;13.782;2023-05-07T02:47:57;5.22;;;3.70;;
45490;SDS011;31237;45.586;13.782;2023-05-07T02:50:23;6.47;;;4.15;;
45490;SDS011;31237;45.586;13.782;2023-05-07T02:52:50;5.40;;;3.92;;
45490;SDS011;31237;45.586;13.782;2023-05-07T02:55:15;5.28;;;3.58;;
45490;SDS011;31237;45.586;13.782;2023-05-07T02:57:41;4.95;;;3.75;;
45490;SDS011;31237;45.586;13.782;2023-05-07T03:00:10;5.25;;;3.70;;
45490;SDS011;31237;45.586;13.782;2023-05-07T03:02:40;5.30;;;3.33;;
45490;SDS011;31237;45.586;13.782;2023-05-07T03:05:06;5.10;;;3.90;;
45490;SDS011;31237;45.586;13.782;2023-05-07T03:07:32;5.30;;;3.53;;
45490;SDS011;31237;45.586;13.782;2023-05-07T03:09:58;6.45;;;3.58;;
45490;SDS011;31237;45.586;13.782;2023-05-07T03:12:24;5.03;;;3.60;;
45490;SDS011;31237;45.586;13.782;2023-05-07T03:14:50;4.88;;;3.50;;
45490;SDS011;31237;45.586;13.782;2023-05-07T03:17:15;4.82;;;3.45;;
45490;SDS011;31237;45.586;13.782;2023-05-07T03:19:41;5.10;;;3.35;;
45490;SDS011;31237;45.586;13.782;2023-05-07T03:22:07;5.28;;;3.35;;
45490;SDS011;31237;45.586;13.782;2023-05-07T03:24:32;4.80;;;3.47;;
45490;SDS011;31237;45.586;13.782;2023-05-07T03:26:58;7.05;;;4.18;;
45490;SDS011;31237;45.586;13.782;2023-05-07T03:29:26;5.18;;;3.55;;
45490;SDS011;31237;45.586;13.782;2023-05-07T03:31:51;4.78;;;3.58;;
45490;SDS011;31237;45.586;13.782;2023-05-07T03:34:17;5.68;;;3.42;;
45490;SDS011;31237;45.586;13.782;2023-05-07T03:36:47;6.13;;;3.72;;
45490;SDS011;31237;45.586;13.782;2023-05-07T03:39:13;5.47;;;3.63;;
45490;SDS011;31237;45.586;13.782;2023-05-07T03:41:39;4.97;;;3.55;;
45490;SDS011;31237;45.586;13.782;2023-05-07T03:44:05;5.07;;;3.90;;
45490;SDS011;31237;45.586;13.782;2023-05-07T03:46:31;6.10;;;4.35;;
45490;SDS011;31237;45.586;13.782;2023-05-07T03:48:57;6.20;;;4.40;;
45490;SDS011;31237;45.586;13.782;2023-05-07T03:51:23;7.82;;;4.78;;
45490;SDS011;31237;45.586;13.782;2023-05-07T03:53:50;6.22;;;4.80;;
45490;SDS011;31237;45.586;13.782;2023-05-07T03:56:18;10.23;;;5.20;;
45490;SDS011;31237;45.586;13.782;2023-05-07T03:58:44;7.55;;;5.22;;
45490;SDS011;31237;45.586;13.782;2023-05-07T04:01:10;7.95;;;5.30;;
45490;SDS011;31237;45.586;13.782;2023-05-07T04:03:36;7.22;;;4.85;;
45490;SDS011;31237;45.586;13.782;2023-05-07T04:06:02;7.25;;;4.95;;
45490;SDS011;31237;45.586;13.782;2023-05-07T04:08:27;8.25;;;5.20;;
45490;SDS011;31237;45.586;13.782;2023-05-07T04:10:56;9.27;;;4.85;;
45490;SDS011;31237;45.586;13.782;2023-05-07T04:13:23;7.97;;;4.78;;
45490;SDS011;31237;45.586;13.782;2023-05-07T04:15:49;6.63;;;4.65;;
45490;SDS011;31237;45.586;13.782;2023-05-07T04:18:15;6.88;;;4.28;;
45490;SDS011;31237;45.586;13.782;2023-05-07T04:20:41;7.93;;;4.78;;
45490;SDS011;31237;45.586;13.782;2023-05-07T04:23:07;5.95;;;4.22;;
45490;SDS011;31237;45.586;13.782;2023-05-07T04:25:33;7.53;;;4.57;;
45490;SDS011;31237;45.586;13.782;2023-05-07T04:27:59;8.75;;;5.18;;
45490;SDS011;31237;45.586;13.782;2023-05-07T04:30:25;6.57;;;4.30;;
45490;SDS011;31237;45.586;13.782;2023-05-07T04:32:51;5.88;;;4.47;;
45490;SDS011;31237;45.586;13.782;2023-05-07T04:35:18;6.47;;;4.53;;
45490;SDS011;31237;45.586;13.782;2023-05-07T04:37:44;6.20;;;4.50;;
45490;SDS011;31237;45.586;13.782;2023-05-07T04:40:09;6.05;;;4.80;;
45490;SDS011;31237;45.586;13.782;2023-05-07T04:42:35;7.03;;;4.63;;
45490;SDS011;31237;45.586;13.782;2023-05-07T04:45:01;5.30;;;4.18;;
45490;SDS011;31237;45.586;13.782;2023-05-07T04:47:27;6.57;;;4.47;;
45490;SDS011;31237;45.586;13.782;2023-05-07T04:49:53;7.43;;;4.80;;
45490;SDS011;31237;45.586;13.782;2023-05-07T04:52:18;6.63;;;4.57;;
45490;SDS011;31237;45.586;13.782;2023-05-07T04:54:44;7.15;;;4.45;;
45490;SDS011;31237;45.586;13.782;2023-05-07T04:57:10;6.60;;;4.18;;
45490;SDS011;31237;45.586;13.782;2023-05-07T04:59:35;5.53;;;4.30;;
45490;SDS011;31237;45.586;13.782;2023-05-07T05:02:01;6.00;;;4.00;;
45490;SDS011;31237;45.586;13.782;2023-05-07T05:04:29;6.00;;;4.18;;
45490;SDS011;31237;45.586;13.782;2023-05-07T05:06:55;6.50;;;3.53;;
45490;SDS011;31237;45.586;13.782;2023-05-07T05:09:21;7.05;;;4.10;;
45490;SDS011;31237;45.586;13.782;2023-05-07T05:11:46;5.22;;;3.70;;
45490;SDS011;31237;45.586;13.782;2023-05-07T05:14:12;4.95;;;3.67;;
45490;SDS011;31237;45.586;13.782;2023-05-07T05:16:38;5.75;;;3.70;;
45490;SDS011;31237;45.586;13.782;2023-05-07T05:19:04;5.18;;;3.60;;
45490;SDS011;31237;45.586;13.782;2023-05-07T05:21:31;4.47;;;3.38;;
45490;SDS011;31237;45.586;13.782;2023-05-07T05:23:56;4.85;;;3.60;;
45490;SDS011;31237;45.586;13.782;2023-05-07T05:26:23;5.45;;;3.80;;
45490;SDS011;31237;45.586;13.782;2023-05-07T05:28:48;5.53;;;3.90;;
45490;SDS011;31237;45.586;13.782;2023-05-07T05:31:14;5.65;;;4.30;;
45490;SDS011;31237;45.586;13.782;2023-05-07T05:33:41;5.68;;;3.72;;
45490;SDS011;31237;45.586;13.782;2023-05-07T05:36:08;6.05;;;4.15;;
45490;SDS011;31237;45.586;13.782;2023-05-07T05:38:35;5.13;;;3.88;;
45490;SDS011;31237;45.586;13.782;2023-05-07T05:41:01;4.90;;;3.70;;
45490;SDS011;31237;45.586;13.782;2023-05-07T05:43:27;4.50;;;3.95;;
45490;SDS011;31237;45.586;13.782;2023-05-07T05:45:52;5.40;;;4.20;;
45490;SDS011;31237;45.586;13.782;2023-05-07T05:48:18;8.93;;;3.78;;
45490;SDS011;31237;45.586;13.782;2023-05-07T05:50:44;4.93;;;3.40;;
45490;SDS011;31237;45.586;13.782;2023-05-07T05:53:10;4.53;;;3.38;;
45490;SDS011;31237;45.586;13.782;2023-05-07T05:55:35;4.82;;;3.63;;
45490;SDS011;31237;45.586;13.782;2023-05-07T05:58:01;5.03;;;3.70;;
45490;SDS011;31237;45.586;13.782;2023-05-07T06:00:28;4.57;;;3.60;;
45490;SDS011;31237;45.586;13.782;2023-05-07T06:02:55;5.57;;;3.88;;
45490;SDS011;31237;45.586;13.782;2023-05-07T06:05:20;5.68;;;4.28;;
45490;SDS011;31237;45.586;13.782;2023-05-07T06:07:46;4.93;;;3.85;;
45490;SDS011;31237;45.586;13.782;2023-05-07T06:10:12;5.60;;;4.20;;
45490;SDS011;31237;45.586;13.782;2023-05-07T06:12:37;4.93;;;3.67;;
45490;SDS011;31237;45.586;13.782;2023-05-07T06:15:05;5.72;;;3.53;;
45490;SDS011;31237;45.586;13.782;2023-05-07T06:17:31;4.72;;;3.53;;
45490;SDS011;31237;45.586;13.782;2023-05-07T06:19:57;6.90;;;4.05;;
45490;SDS011;31237;45.586;13.782;2023-05-07T06:22:22;4.70;;;3.60;;
45490;SDS011;31237;45.586;13.782;2023-05-07T06:24:48;5.72;;;3.95;;
45490;SDS011;31237;45.586;13.782;2023-05-07T06:27:14;5.85;;;3.60;;
45490;SDS011;31237;45.586;13.782;2023-05-07T06:29:39;5.72;;;3.85;;
45490;SDS011;31237;45.586;13.782;2023-05-07T06:32:12;5.82;;;4.40;;
45490;SDS011;31237;45.586;13.782;2023-05-07T06:34:38;5.80;;;3.78;;
45490;SDS011;31237;45.586;13.782;2023-05-07T06:37:05;5.25;;;3.95;;
45490;SDS011;31237;45.586;13.782;2023-05-07T06:39:31;5.53;;;4.32;;
45490;SDS011;31237;45.586;13.782;2023-05-07T06:41:57;4.85;;;3.75;;
45490;SDS011;31237;45.586;13.782;2023-05-07T06:44:23;5.88;;;4.13;;
45490;SDS011;31237;45.586;13.782;2023-05-07T06:46:49;5.63;;;3.95;;
45490;SDS011;31237;45.586;13.782;2023-05-07T06:49:15;5.85;;;4.63;;
45490;SDS011;31237;45.586;13.782;2023-05-07T06:51:40;6.20;;;4.18;;
45490;SDS011;31237;45.586;13.782;2023-05-07T06:54:06;5.50;;;3.80;;
45490;SDS011;31237;45.586;13.782;2023-05-07T06:56:32;4.72;;;3.83;;
45490;SDS011;31237;45.586;13.782;2023-05-07T06:58:59;4.68;;;3.90;;
45490;SDS011;31237;45.586;13.782;2023-05-07T07:01:25;4.90;;;3.70;;
45490;SDS011;31237;45.586;13.782;2023-05-07T07:03:51;5.32;;;3.83;;
45490;SDS011;31237;45.586;13.782;2023-05-07T07:06:17;4.55;;;3.47;;
45490;SDS011;31237;45.586;13.782;2023-05-07T07:08:42;5.13;;;3.75;;
45490;SDS011;31237;45.586;13.782;2023-05-07T07:11:08;6.40;;;4.35;;
45490;SDS011;31237;45.586;13.782;2023-05-07T07:13:35;8.30;;;4.72;;
45490;SDS011;31237;45.586;13.782;2023-05-07T07:16:01;9.40;;;5.72;;
45490;SDS011;31237;45.586;13.782;2023-05-07T07:18:26;10.32;;;5.90;;
45490;SDS011;31237;45.586;13.782;2023-05-07T07:20:52;11.40;;;5.82;;
45490;SDS011;31237;45.586;13.782;2023-05-07T07:23:18;7.47;;;5.05;;
45490;SDS011;31237;45.586;13.782;2023-05-07T07:25:43;6.80;;;4.47;;
45490;SDS011;31237;45.586;13.782;2023-05-07T07:28:09;6.68;;;4.65;;
45490;SDS011;31237;45.586;13.782;2023-05-07T07:30:36;8.27;;;4.95;;
45490;SDS011;31237;45.586;13.782;2023-05-07T07:33:02;5.65;;;3.92;;
45490;SDS011;31237;45.586;13.782;2023-05-07T07:35:31;5.57;;;4.00;;
45490;SDS011;31237;45.586;13.782;2023-05-07T07:37:57;5.72;;;4.50;;
45490;SDS011;31237;45.586;13.782;2023-05-07T07:40:23;8.35;;;5.85;;
45490;SDS011;31237;45.586;13.782;2023-05-07T07:42:50;9.48;;;5.75;;
45490;SDS011;31237;45.586;13.782;2023-05-07T07:45:18;8.82;;;6.32;;
45490;SDS011;31237;45.586;13.782;2023-05-07T07:47:44;6.00;;;4.95;;
45490;SDS011;31237;45.586;13.782;2023-05-07T07:50:10;7.35;;;4.95;;
45490;SDS011;31237;45.586;13.782;2023-05-07T07:52:36;8.88;;;4.22;;
45490;SDS011;31237;45.586;13.782;2023-05-07T07:55:02;5.07;;;4.55;;
45490;SDS011;31237;45.586;13.782;2023-05-07T07:57:28;6.90;;;4.25;;
45490;SDS011;31237;45.586;13.782;2023-05-07T07:59:54;6.97;;;4.60;;
45490;SDS011;31237;45.586;13.782;2023-05-07T08:02:21;5.32;;;3.97;;
45490;SDS011;31237;45.586;13.782;2023-05-07T08:04:49;5.85;;;4.25;;
45490;SDS011;31237;45.586;13.782;2023-05-07T08:07:14;7.97;;;5.60;;
45490;SDS011;31237;45.586;13.782;2023-05-07T08:09:40;7.88;;;5.40;;
45490;SDS011;31237;45.586;13.782;2023-05-07T08:12:06;5.95;;;3.97;;
45490;SDS011;31237;45.586;13.782;2023-05-07T08:14:32;6.03;;;4.15;;
45490;SDS011;31237;45.586;13.782;2023-05-07T08:16:58;7.97;;;3.72;;
45490;SDS011;31237;45.586;13.782;2023-05-07T08:19:24;6.45;;;4.30;;
45490;SDS011;31237;45.586;13.782;2023-05-07T08:21:50;4.60;;;3.60;;
45490;SDS011;31237;45.586;13.782;2023-05-07T08:24:16;5.88;;;4.10;;
45490;SDS011;31237;45.586;13.782;2023-05-07T08:26:42;5.95;;;4.07;;
45490;SDS011;31237;45.586;13.782;2023-05-07T08:29:08;4.82;;;3.80;;
45490;SDS011;31237;45.586;13.782;2023-05-07T08:31:33;5.55;;;3.63;;
45490;SDS011;31237;45.586;13.782;2023-05-07T08:33:59;5.32;;;4.03;;
45490;SDS011;31237;45.586;13.782;2023-05-07T08:36:25;6.25;;;4.03;;
45490;SDS011;31237;45.586;13.782;2023-05-07T08:38:51;6.68;;;4.72;;
45490;SDS011;31237;45.586;13.782;2023-05-07T08:41:18;5.25;;;4.50;;
45490;SDS011;31237;45.586;13.782;2023-05-07T08:43:47;5.82;;;4.13;;
45490;SDS011;31237;45.586;13.782;2023-05-07T08:46:21;6.03;;;4.20;;
45490;SDS011;31237;45.586;13.782;2023-05-07T08:48:48;5.95;;;4.38;;
45490;SDS011;31237;45.586;13.782;2023-05-07T08:51:18;5.63;;;4.55;;
45490;SDS011;31237;45.586;13.782;2023-05-07T08:53:46;5.85;;;4.90;;
45490;SDS011;31237;45.586;13.782;2023-05-07T08:56:14;5.90;;;4.78;;
45490;SDS011;31237;45.586;13.782;2023-05-07T08:58:40;6.13;;;4.97;;
45490;SDS011;31237;45.586;13.782;2023-05-07T09:01:13;6.38;;;4.68;;
45490;SDS011;31237;45.586;13.782;2023-05-07T09:03:40;6.80;;;4.82;;
45490;SDS011;31237;45.586;13.782;2023-05-07T09:06:06;7.45;;;4.68;;
45490;SDS011;31237;45.586;13.782;2023-05-07T09:08:33;6.97;;;5.60;;
45490;SDS011;31237;45.586;13.782;2023-05-07T09:10:59;5.75;;;5.13;;
45490;SDS011;31237;45.586;13.782;2023-05-07T09:13:25;6.63;;;4.97;;
45490;SDS011;31237;45.586;13.782;2023-05-07T09:15:52;6.28;;;5.43;;
45490;SDS011;31237;45.586;13.782;2023-05-07T09:18:18;5.65;;;4.20;;
45490;SDS011;31237;45.586;13.782;2023-05-07T09:20:43;7.95;;;5.47;;
45490;SDS011;31237;45.586;13.782;2023-05-07T09:23:09;7.55;;;5.97;;
45490;SDS011;31237;45.586;13.782;2023-05-07T09:25:35;6.90;;;5.72;;
45490;SDS011;31237;45.586;13.782;2023-05-07T09:28:02;8.00;;;5.45;;
45490;SDS011;31237;45.586;13.782;2023-05-07T09:30:29;6.18;;;4.82;;
45490;SDS011;31237;45.586;13.782;2023-05-07T09:32:56;7.38;;;5.50;;
45490;SDS011;31237;45.586;13.782;2023-05-07T09:35:26;7.72;;;5.35;;
45490;SDS011;31237;45.586;13.782;2023-05-07T09:37:55;7.85;;;5.57;;
45490;SDS011;31237;45.586;13.782;2023-05-07T09:40:23;7.50;;;5.13;;
45490;SDS011;31237;45.586;13.782;2023-05-07T09:42:50;6.88;;;4.80;;
45490;SDS011;31237;45.586;13.782;2023-05-07T09:45:21;7.68;;;5.13;;
45490;SDS011;31237;45.586;13.782;2023-05-07T09:47:50;6.78;;;5.10;;
45490;SDS011;31237;45.586;13.782;2023-05-07T09:50:19;7.00;;;5.43;;
45490;SDS011;31237;45.586;13.782;2023-05-07T09:52:51;7.18;;;5.13;;
45490;SDS011;31237;45.586;13.782;2023-05-07T09:55:17;7.68;;;5.40;;
45490;SDS011;31237;45.586;13.782;2023-05-07T09:57:44;6.30;;;4.38;;
45490;SDS011;31237;45.586;13.782;2023-05-07T10:00:11;6.75;;;4.65;;
45490;SDS011;31237;45.586;13.782;2023-05-07T10:02:37;5.93;;;4.38;;
45490;SDS011;31237;45.586;13.782;2023-05-07T10:05:12;7.60;;;4.78;;
45490;SDS011;31237;45.586;13.782;2023-05-07T10:07:39;5.68;;;4.80;;
45490;SDS011;31237;45.586;13.782;2023-05-07T10:10:06;7.47;;;4.88;;
45490;SDS011;31237;45.586;13.782;2023-05-07T10:12:32;6.03;;;4.70;;
45490;SDS011;31237;45.586;13.782;2023-05-07T10:15:04;6.43;;;4.90;;
45490;SDS011;31237;45.586;13.782;2023-05-07T10:17:31;5.25;;;4.43;;
45490;SDS011;31237;45.586;13.782;2023-05-07T10:19:58;6.72;;;4.68;;
45490;SDS011;31237;45.586;13.782;2023-05-07T10:22:23;4.50;;;3.97;;
45490;SDS011;31237;45.586;13.782;2023-05-07T10:24:52;4.80;;;3.83;;
45490;SDS011;31237;45.586;13.782;2023-05-07T10:27:20;5.10;;;4.03;;
45490;SDS011;31237;45.586;13.782;2023-05-07T10:35:06;6.45;;;4.65;;
45490;SDS011;31237;45.586;13.782;2023-05-07T10:37:38;5.60;;;4.43;;
45490;SDS011;31237;45.586;13.782;2023-05-07T10:40:05;6.03;;;4.78;;
45490;SDS011;31237;45.586;13.782;2023-05-07T10:42:32;5.07;;;4.38;;
45490;SDS011;31237;45.586;13.782;2023-05-07T10:44:57;5.22;;;4.72;;
45490;SDS011;31237;45.586;13.782;2023-05-07T10:47:36;5.47;;;4.78;;
45490;SDS011;31237;45.586;13.782;2023-05-07T10:50:31;6.65;;;4.85;;
45490;SDS011;31237;45.586;13.782;2023-05-07T10:53:20;6.22;;;4.90;;
45490;SDS011;31237;45.586;13.782;2023-05-07T10:55:46;5.90;;;4.53;;
45490;SDS011;31237;45.586;13.782;2023-05-07T10:58:23;8.23;;;5.97;;
45490;SDS011;31237;45.586;13.782;2023-05-07T11:00:55;5.60;;;4.70;;
45490;SDS011;31237;45.586;13.782;2023-05-07T11:03:22;6.18;;;5.10;;
45490;SDS011;31237;45.586;13.782;2023-05-07T11:05:48;6.50;;;4.80;;
45490;SDS011;31237;45.586;13.782;2023-05-07T11:08:52;6.50;;;4.30;;
45490;SDS011;31237;45.586;13.782;2023-05-07T11:14:09;6.05;;;4.60;;
45490;SDS011;31237;45.586;13.782;2023-05-07T11:16:35;5.57;;;4.55;;
45490;SDS011;31237;45.586;13.782;2023-05-07T11:19:03;5.38;;;4.28;;
45490;SDS011;31237;45.586;13.782;2023-05-07T11:21:32;5.88;;;4.40;;
45490;SDS011;31237;45.586;13.782;2023-05-07T11:24:05;5.20;;;4.00;;
45490;SDS011;31237;45.586;13.782;2023-05-07T11:26:46;5.28;;;4.07;;
45490;SDS011;31237;45.586;13.782;2023-05-07T11:29:20;5.22;;;4.00;;
45490;SDS011;31237;45.586;13.782;2023-05-07T11:31:50;5.50;;;4.05;;
45490;SDS011;31237;45.586;13.782;2023-05-07T11:34:23;5.93;;;4.20;;
45490;SDS011;31237;45.586;13.782;2023-05-07T11:36:51;5.85;;;4.25;;
45490;SDS011;31237;45.586;13.782;2023-05-07T11:39:27;4.68;;;3.67;;
45490;SDS011;31237;45.586;13.782;2023-05-07T11:41:53;5.78;;;4.20;;
45490;SDS011;31237;45.586;13.782;2023-05-07T11:44:19;4.47;;;3.72;;
45490;SDS011;31237;45.586;13.782;2023-05-07T11:46:45;6.70;;;4.20;;
45490;SDS011;31237;45.586;13.782;2023-05-07T11:49:11;5.53;;;3.90;;
45490;SDS011;31237;45.586;13.782;2023-05-07T11:51:37;6.43;;;4.25;;
45490;SDS011;31237;45.586;13.782;2023-05-07T11:54:07;5.88;;;4.60;;
45490;SDS011;31237;45.586;13.782;2023-05-07T11:56:34;5.93;;;4.30;;
45490;SDS011;31237;45.586;13.782;2023-05-07T11:59:00;5.30;;;4.10;;
45490;SDS011;31237;45.586;13.782;2023-05-07T12:01:26;4.25;;;3.70;;
45490;SDS011;31237;45.586;13.782;2023-05-07T12:03:52;5.32;;;3.75;;
45490;SDS011;31237;45.586;13.782;2023-05-07T12:06:18;4.90;;;3.90;;
45490;SDS011;31237;45.586;13.782;2023-05-07T12:08:44;5.88;;;4.03;;
45490;SDS011;31237;45.586;13.782;2023-05-07T12:11:21;5.63;;;3.95;;
45490;SDS011;31237;45.586;13.782;2023-05-07T12:13:48;6.45;;;3.60;;
45490;SDS011;31237;45.586;13.782;2023-05-07T12:16:14;4.40;;;3.28;;
45490;SDS011;31237;45.586;13.782;2023-05-07T12:18:40;4.60;;;3.85;;
45490;SDS011;31237;45.586;13.782;2023-05-07T12:21:06;4.72;;;3.63;;
45490;SDS011;31237;45.586;13.782;2023-05-07T12:23:35;4.30;;;3.38;;
45490;SDS011;31237;45.586;13.782;2023-05-07T12:26:03;4.28;;;3.22;;
45490;SDS011;31237;45.586;13.782;2023-05-07T12:28:29;4.25;;;3.55;;
45490;SDS011;31237;45.586;13.782;2023-05-07T12:30:55;4.95;;;3.75;;
45490;SDS011;31237;45.586;13.782;2023-05-07T12:33:25;4.90;;;3.53;;
45490;SDS011;31237;45.586;13.782;2023-05-07T12:35:53;4.40;;;3.25;;
45490;SDS011;31237;45.586;13.782;2023-05-07T12:38:21;4.40;;;3.67;;
45490;SDS011;31237;45.586;13.782;2023-05-07T12:40:48;4.75;;;3.75;;
45490;SDS011;31237;45.586;13.782;2023-05-07T12:43:18;4.70;;;3.53;;
45490;SDS011;31237;45.586;13.782;2023-05-07T12:45:51;4.93;;;3.78;;
45490;SDS011;31237;45.586;13.782;2023-05-07T12:48:19;4.00;;;3.25;;
45490;SDS011;31237;45.586;13.782;2023-05-07T12:51:04;4.10;;;2.92;;
45490;SDS011;31237;45.586;13.782;2023-05-07T12:53:31;3.83;;;3.15;;
45490;SDS011;31237;45.586;13.782;2023-05-07T12:55:57;4.15;;;2.90;;
45490;SDS011;31237;45.586;13.782;2023-05-07T13:00:52;3.90;;;3.10;;
45490;SDS011;31237;45.586;13.782;2023-05-07T13:03:30;3.25;;;2.60;;
45490;SDS011;31237;45.586;13.782;2023-05-07T13:06:07;5.18;;;3.55;;
45490;SDS011;31237;45.586;13.782;2023-05-07T13:08:35;3.83;;;2.72;;
45490;SDS011;31237;45.586;13.782;2023-05-07T13:11:03;4.85;;;3.35;;
45490;SDS011;31237;45.586;13.782;2023-05-07T13:13:36;4.22;;;2.90;;
45490;SDS011;31237;45.586;13.782;2023-05-07T13:18:30;5.20;;;3.83;;
45490;SDS011;31237;45.586;13.782;2023-05-07T13:20:57;4.00;;;3.22;;
45490;SDS011;31237;45.586;13.782;2023-05-07T13:23:23;4.32;;;3.28;;
45490;SDS011;31237;45.586;13.782;2023-05-07T13:25:48;4.20;;;3.35;;
45490;SDS011;31237;45.586;13.782;2023-05-07T13:28:15;3.92;;;3.15;;
45490;SDS011;31237;45.586;13.782;2023-05-07T13:30:41;5.03;;;3.60;;
45490;SDS011;31237;45.586;13.782;2023-05-07T13:33:06;4.68;;;3.72;;
45490;SDS011;31237;45.586;13.782;2023-05-07T13:35:33;4.65;;;3.80;;
45490;SDS011;31237;45.586;13.782;2023-05-07T13:37:59;4.97;;;3.88;;
45490;SDS011;31237;45.586;13.782;2023-05-07T13:40:24;4.32;;;3.40;;
45490;SDS011;31237;45.586;13.782;2023-05-07T13:42:50;5.60;;;4.15;;
45490;SDS011;31237;45.586;13.782;2023-05-07T13:45:17;4.47;;;3.63;;
45490;SDS011;31237;45.586;13.782;2023-05-07T13:47:43;4.43;;;3.40;;
45490;SDS011;31237;45.586;13.782;2023-05-07T13:50:09;4.32;;;3.30;;
45490;SDS011;31237;45.586;13.782;2023-05-07T13:52:42;4.45;;;3.65;;
45490;SDS011;31237;45.586;13.782;2023-05-07T13:55:10;4.60;;;3.40;;
45490;SDS011;31237;45.586;13.782;2023-05-07T13:57:36;4.18;;;3.30;;
45490;SDS011;31237;45.586;13.782;2023-05-07T14:00:03;4.72;;;3.90;;
45490;SDS011;31237;45.586;13.782;2023-05-07T14:02:30;5.40;;;3.38;;
45490;SDS011;31237;45.586;13.782;2023-05-07T14:04:56;7.40;;;5.10;;
45490;SDS011;31237;45.586;13.782;2023-05-07T14:07:22;6.38;;;4.70;;
45490;SDS011;31237;45.586;13.782;2023-05-07T14:09:47;6.68;;;4.80;;
45490;SDS011;31237;45.586;13.782;2023-05-07T14:12:13;6.30;;;5.30;;
45490;SDS011;31237;45.586;13.782;2023-05-07T14:14:39;6.80;;;4.53;;
45490;SDS011;31237;45.586;13.782;2023-05-07T14:17:04;5.72;;;3.70;;
45490;SDS011;31237;45.586;13.782;2023-05-07T14:19:30;7.03;;;4.97;;
45490;SDS011;31237;45.586;13.782;2023-05-07T14:21:56;7.38;;;4.95;;
45490;SDS011;31237;45.586;13.782;2023-05-07T14:24:21;4.97;;;3.65;;
45490;SDS011;31237;45.586;13.782;2023-05-07T14:26:49;4.50;;;3.88;;
45490;SDS011;31237;45.586;13.782;2023-05-07T14:29:16;7.93;;;4.63;;
45490;SDS011;31237;45.586;13.782;2023-05-07T14:31:44;6.60;;;4.57;;
45490;SDS011;31237;45.586;13.782;2023-05-07T14:34:10;6.70;;;4.82;;
45490;SDS011;31237;45.586;13.782;2023-05-07T14:36:36;5.43;;;4.55;;
45490;SDS011;31237;45.586;13.782;2023-05-07T14:39:02;5.90;;;4.40;;
45490;SDS011;31237;45.586;13.782;2023-05-07T14:41:28;8.23;;;5.40;;
45490;SDS011;31237;45.586;13.782;2023-05-07T14:43:54;8.55;;;4.35;;
45490;SDS011;31237;45.586;13.782;2023-05-07T14:46:21;7.60;;;4.53;;
45490;SDS011;31237;45.586;13.782;2023-05-07T14:48:47;6.93;;;4.75;;